Time,TemperatureF,DewpointF,PressureIn,WindDirection,WindDirectionDegrees,WindSpeedMPH,WindSpeedGustMPH,Humidity,HourlyPrecipIn,Conditions,Clouds,dailyrainin,SoftwareType,DateUTC
2013-02-17 00:02:00,29.0,19.0,29.67,North,359,1.0,9.0,66,0.00,,,0.01,,2013-02-17 05:02:00,
2013-02-17 00:12:00,29.0,19.0,29.68,North,352,3.0,10.0,65,0.00,,,0.01,,2013-02-17 05:12:00,
2013-02-17 00:22:00,29.0,19.0,29.68,North,352,3.0,10.0,65,0.00,,,0.01,,2013-02-17 05:22:00,
2013-02-17 00:33:00,28.0,17.0,29.64,NNE,17,1.0,6.0,64,0.00,,,0.01,,2013-02-17 05:33:00,
2013-02-17 00:42:00,28.0,17.0,29.64,NNE,17,1.0,6.0,64,0.00,,,0.01,,2013-02-17 05:42:00,
2013-02-17 00:52:00,28.0,17.0,29.67,NNW,337,2.0,8.0,64,0.00,,,0.01,,2013-02-17 05:52:00,
2013-02-17 01:02:00,28.0,17.0,29.67,North,358,2.0,6.0,64,0.00,,,0.01,,2013-02-17 06:02:00,
2013-02-17 01:11:00,28.0,17.0,29.67,North,358,2.0,6.0,64,0.00,,,0.01,,2013-02-17 06:11:00,
2013-02-17 01:21:00,28.0,17.0,29.67,NNE,15,1.0,5.0,63,0.00,,,0.01,,2013-02-17 06:21:00,
2013-02-17 01:31:00,28.0,17.0,29.68,NNW,348,1.0,6.0,64,0.00,,,0.01,,2013-02-17 06:31:00,
2013-02-17 01:42:00,28.0,17.0,29.68,NNW,348,1.0,6.0,64,0.00,,,0.01,,2013-02-17 06:42:00,
2013-02-17 01:52:00,28.0,17.0,29.68,NNW,348,1.0,6.0,62,0.00,,,0.01,,2013-02-17 06:52:00,
2013-02-17 02:01:00,27.0,15.0,29.69,NNW,327,2.0,10.0,61,0.00,,,0.00,,2013-02-17 07:01:00,
2013-02-17 02:11:00,27.0,15.0,29.68,NNW,348,3.0,10.0,61,0.00,,,0.00,,2013-02-17 07:11:00,
2013-02-17 02:21:00,27.0,15.0,29.68,NNW,348,3.0,10.0,61,0.00,,,0.00,,2013-02-17 07:21:00,
2013-02-17 02:32:00,27.0,15.0,29.68,North,351,4.0,8.0,60,0.00,,,0.00,,2013-02-17 07:32:00,
2013-02-17 02:42:00,27.0,15.0,29.68,North,351,4.0,8.0,60,0.00,,,0.00,,2013-02-17 07:42:00,
2013-02-17 02:52:00,27.0,15.0,29.67,North,349,3.0,10.0,59,0.00,,,0.00,,2013-02-17 07:52:00,
2013-02-17 03:01:00,27.0,15.0,29.67,North,0,0.0,9.0,59,0.00,,,0.00,,2013-02-17 08:01:00,
2013-02-17 03:11:00,27.0,15.0,29.67,North,0,0.0,9.0,59,0.00,,,0.00,,2013-02-17 08:11:00,
2013-02-17 03:21:00,27.0,15.0,29.67,NNW,333,3.0,10.0,59,0.00,,,0.00,,2013-02-17 08:21:00,
2013-02-17 03:32:00,27.0,15.0,29.67,North,351,1.0,6.0,59,0.00,,,0.00,,2013-02-17 08:32:00,
2013-02-17 03:42:00,27.0,15.0,29.67,North,351,1.0,6.0,59,0.00,,,0.00,,2013-02-17 08:42:00,
2013-02-17 03:52:00,26.0,14.0,29.67,NNW,343,3.0,6.0,60,0.00,,,0.00,,2013-02-17 08:52:00,
2013-02-17 04:02:00,26.0,14.0,29.68,North,353,1.0,7.0,61,0.00,,,0.00,,2013-02-17 09:02:00,
2013-02-17 04:11:00,26.0,14.0,29.68,North,353,1.0,7.0,61,0.00,,,0.00,,2013-02-17 09:11:00,
2013-02-17 04:21:00,26.0,15.0,29.67,NNW,341,2.0,7.0,62,0.00,,,0.00,,2013-02-17 09:21:00,
2013-02-17 04:31:00,26.0,15.0,29.67,North,355,1.0,6.0,62,0.00,,,0.00,,2013-02-17 09:31:00,
2013-02-17 04:42:00,26.0,15.0,29.67,North,355,1.0,6.0,62,0.00,,,0.00,,2013-02-17 09:42:00,
2013-02-17 04:52:00,25.0,14.0,29.69,NNW,336,2.0,6.0,62,0.00,,,0.00,,2013-02-17 09:52:00,
2013-02-17 05:01:00,25.0,14.0,29.67,North,6,1.0,6.0,63,0.00,,,0.00,,2013-02-17 10:01:00,
2013-02-17 05:11:00,25.0,15.0,29.68,NNW,344,2.0,5.0,64,0.00,,,0.00,,2013-02-17 10:11:00,
2013-02-17 05:21:00,25.0,15.0,29.68,NNW,344,2.0,5.0,64,0.00,,,0.00,,2013-02-17 10:21:00,
2013-02-17 05:32:00,25.0,15.0,29.68,NNW,343,2.0,10.0,64,0.00,,,0.00,,2013-02-17 10:32:00,
2013-02-17 05:42:00,25.0,15.0,29.68,NNW,343,2.0,10.0,64,0.00,,,0.00,,2013-02-17 10:42:00,
2013-02-17 05:52:00,25.0,15.0,29.68,NNW,346,2.0,9.0,64,0.00,,,0.00,,2013-02-17 10:52:00,
2013-02-17 06:01:00,24.0,14.0,29.68,NNW,344,2.0,8.0,65,0.00,,,0.00,,2013-02-17 11:01:00,
2013-02-17 06:11:00,24.0,14.0,29.68,NNW,344,2.0,8.0,65,0.00,,,0.00,,2013-02-17 11:11:00,
2013-02-17 06:21:00,24.0,14.0,29.68,NNW,340,1.0,10.0,66,0.00,,,0.00,,2013-02-17 11:21:00,
2013-02-17 06:32:00,24.0,14.0,29.69,NNW,331,1.0,14.0,66,0.00,,,0.00,,2013-02-17 11:32:00,
2013-02-17 06:42:00,24.0,14.0,29.69,NNW,331,1.0,14.0,66,0.00,,,0.00,,2013-02-17 11:42:00,
2013-02-17 06:52:00,24.0,15.0,29.69,NNW,348,1.0,5.0,67,0.00,,,0.00,,2013-02-17 11:52:00,
2013-02-17 07:03:00,24.0,15.0,29.69,NNW,342,4.0,7.0,68,0.00,,,0.00,,2013-02-17 12:03:00,
2013-02-17 07:11:00,24.0,15.0,29.69,NNW,342,4.0,7.0,68,0.00,,,0.00,,2013-02-17 12:11:00,
2013-02-17 07:22:00,23.0,14.0,29.70,North,355,3.0,13.0,68,0.00,,,0.00,,2013-02-17 12:22:00,
2013-02-17 07:32:00,23.0,14.0,29.70,North,0,0.0,9.0,69,0.00,,,0.00,,2013-02-17 12:32:00,
2013-02-17 07:42:00,23.0,14.0,29.70,North,0,0.0,9.0,69,0.00,,,0.00,,2013-02-17 12:42:00,
2013-02-17 07:52:00,23.0,15.0,29.70,NNW,341,3.0,10.0,70,0.00,,,0.00,,2013-02-17 12:52:00,
2013-02-17 08:02:00,24.0,16.0,29.70,NNW,346,4.0,9.0,71,0.00,,,0.00,,2013-02-17 13:02:00,
2013-02-17 08:12:00,24.0,16.0,29.70,NNW,346,4.0,9.0,71,0.00,,,0.00,,2013-02-17 13:12:00,
2013-02-17 08:22:00,24.0,16.0,29.69,NNW,342,2.0,10.0,71,0.00,,,0.00,,2013-02-17 13:22:00,
2013-02-17 08:32:00,24.0,16.0,29.67,NNW,337,4.0,9.0,71,0.00,,,0.00,,2013-02-17 13:32:00,
2013-02-17 08:42:00,24.0,16.0,29.67,NNW,337,4.0,9.0,71,0.00,,,0.00,,2013-02-17 13:42:00,
2013-02-17 08:52:00,25.0,17.0,29.69,NNW,331,2.0,12.0,70,0.00,,,0.00,,2013-02-17 13:52:00,
2013-02-17 09:01:00,25.0,16.0,29.54,NNW,346,2.0,11.0,69,0.00,,,0.00,,2013-02-17 14:01:00,
2013-02-17 09:11:00,25.0,16.0,29.54,NNW,346,2.0,11.0,69,0.00,,,0.00,,2013-02-17 14:11:00,
2013-02-17 09:22:00,25.0,16.0,29.67,NNW,347,4.0,15.0,67,0.00,,,0.00,,2013-02-17 14:22:00,
2013-02-17 09:32:00,25.0,15.0,29.67,North,351,6.0,17.0,64,0.00,,,0.00,,2013-02-17 14:32:00,
2013-02-17 09:42:00,25.0,15.0,29.67,North,351,6.0,17.0,64,0.00,,,0.00,,2013-02-17 14:42:00,
2013-02-17 09:53:00,26.0,15.0,28.83,NNW,339,2.0,9.0,63,0.00,,,0.00,,2013-02-17 14:53:00,
2013-02-17 10:02:00,27.0,15.0,29.21,North,353,7.0,12.0,60,0.00,,,0.00,,2013-02-17 15:02:00,
2013-02-17 10:11:00,27.0,15.0,29.21,North,353,7.0,12.0,60,0.00,,,0.00,,2013-02-17 15:11:00,
2013-02-17 10:21:00,27.0,15.0,28.96,NNW,341,8.0,14.0,60,0.00,,,0.00,,2013-02-17 15:21:00,
2013-02-17 10:32:00,27.0,15.0,29.36,North,350,3.0,15.0,59,0.00,,,0.00,,2013-02-17 15:32:00,
2013-02-17 10:42:00,27.0,15.0,29.36,North,350,3.0,15.0,59,0.00,,,0.00,,2013-02-17 15:42:00,
2013-02-17 10:52:00,28.0,16.0,29.36,NNW,337,5.0,14.0,60,0.00,,,0.00,,2013-02-17 15:52:00,
2013-02-17 11:01:00,28.0,15.0,29.70,North,353,7.0,16.0,58,0.00,,,0.00,,2013-02-17 16:01:00,
2013-02-17 11:12:00,28.0,15.0,29.70,North,353,7.0,16.0,58,0.00,,,0.00,,2013-02-17 16:12:00,
2013-02-17 11:21:00,27.0,15.0,29.70,North,352,4.0,13.0,59,0.00,,,0.00,,2013-02-17 16:21:00,
2013-02-17 11:32:00,27.0,15.0,29.48,NNE,16,6.0,14.0,59,0.00,,,0.00,,2013-02-17 16:32:00,
2013-02-17 11:42:00,27.0,15.0,29.48,NNE,16,6.0,14.0,59,0.00,,,0.00,,2013-02-17 16:42:00,
2013-02-17 11:52:00,27.0,15.0,29.26,NNW,340,6.0,13.0,60,0.00,,,0.00,,2013-02-17 16:52:00,
2013-02-17 12:02:00,27.0,14.0,29.51,NNW,347,6.0,13.0,58,0.00,,,0.00,,2013-02-17 17:02:00,
2013-02-17 12:11:00,27.0,14.0,29.51,NNW,347,6.0,13.0,58,0.00,,,0.00,,2013-02-17 17:11:00,
2013-02-17 12:21:00,29.0,16.0,29.03,North,353,4.0,14.0,59,0.00,,,0.00,,2013-02-17 17:21:00,
2013-02-17 12:32:00,28.0,15.0,29.20,North,355,3.0,17.0,58,0.00,,,0.00,,2013-02-17 17:32:00,
2013-02-17 12:42:00,28.0,15.0,29.20,North,355,3.0,17.0,58,0.00,,,0.00,,2013-02-17 17:42:00,
2013-02-17 12:52:00,28.0,18.0,29.20,North,9,1.0,11.0,65,0.00,,,0.00,,2013-02-17 17:52:00,
2013-02-17 13:02:00,29.0,17.0,29.20,NNW,347,5.0,14.0,60,0.00,,,0.00,,2013-02-17 18:02:00,
2013-02-17 13:11:00,29.0,17.0,29.20,NNW,347,5.0,14.0,60,0.00,,,0.00,,2013-02-17 18:11:00,
2013-02-17 13:22:00,29.0,15.0,29.20,North,351,4.0,14.0,56,0.00,,,0.00,,2013-02-17 18:22:00,
2013-02-17 13:33:00,29.0,15.0,29.38,North,353,2.0,14.0,55,0.00,,,0.00,,2013-02-17 18:33:00,
2013-02-17 13:42:00,29.0,15.0,29.38,North,353,2.0,14.0,55,0.00,,,0.00,,2013-02-17 18:42:00,
2013-02-17 13:52:00,29.0,14.0,29.71,NNW,338,5.0,13.0,53,0.00,,,0.00,,2013-02-17 18:52:00,
2013-02-17 14:01:00,28.0,13.0,29.72,NNW,346,5.0,16.0,52,0.00,,,0.00,,2013-02-17 19:01:00,
2013-02-17 14:11:00,28.0,13.0,29.72,NNW,346,5.0,16.0,52,0.00,,,0.00,,2013-02-17 19:11:00,
2013-02-17 14:21:00,28.0,14.0,29.71,NNW,338,6.0,13.0,55,0.00,,,0.00,,2013-02-17 19:21:00,
2013-02-17 14:32:00,29.0,15.0,29.72,NNW,346,4.0,14.0,55,0.00,,,0.00,,2013-02-17 19:32:00,
2013-02-17 14:42:00,29.0,15.0,29.72,NNW,346,4.0,14.0,55,0.00,,,0.00,,2013-02-17 19:42:00,
2013-02-17 14:52:00,28.0,19.0,29.72,NNW,342,2.0,12.0,68,0.00,,,0.00,,2013-02-17 19:52:00,
2013-02-17 15:02:00,27.0,18.0,29.72,NNW,337,9.0,14.0,67,0.00,,,0.00,,2013-02-17 20:02:00,
2013-02-17 15:11:00,27.0,18.0,29.72,NNW,337,9.0,14.0,67,0.00,,,0.00,,2013-02-17 20:11:00,
2013-02-17 15:22:00,26.0,19.0,29.73,North,352,5.0,21.0,75,0.00,,,0.00,,2013-02-17 20:22:00,
2013-02-17 15:32:00,24.0,20.0,29.66,NNW,337,2.0,12.0,83,0.00,,,0.00,,2013-02-17 20:32:00,
2013-02-17 15:42:00,24.0,20.0,29.66,NNW,337,2.0,12.0,83,0.00,,,0.00,,2013-02-17 20:42:00,
2013-02-17 15:52:00,25.0,20.0,29.67,NNW,340,7.0,15.0,82,0.00,,,0.00,,2013-02-17 20:52:00,
2013-02-17 16:02:00,24.0,19.0,29.67,North,7,3.0,9.0,81,0.00,,,0.00,,2013-02-17 21:02:00,
2013-02-17 16:11:00,24.0,19.0,29.67,North,7,3.0,9.0,81,0.00,,,0.00,,2013-02-17 21:11:00,
2013-02-17 16:21:00,25.0,18.0,29.76,NNW,338,4.0,13.0,74,0.00,,,0.00,,2013-02-17 21:21:00,
2013-02-17 16:32:00,26.0,17.0,29.69,North,351,8.0,14.0,69,0.00,,,0.00,,2013-02-17 21:32:00,
2013-02-17 16:42:00,26.0,17.0,29.69,North,351,8.0,14.0,69,0.00,,,0.00,,2013-02-17 21:42:00,
2013-02-17 16:53:00,27.0,15.0,29.76,NNW,338,5.0,20.0,61,0.00,,,0.00,,2013-02-17 21:53:00,
2013-02-17 17:01:00,27.0,13.0,29.68,NNW,337,3.0,12.0,54,0.00,,,0.00,,2013-02-17 22:01:00,
2013-02-17 17:12:00,27.0,13.0,29.68,NNW,337,3.0,12.0,54,0.00,,,0.00,,2013-02-17 22:12:00,
2013-02-17 17:22:00,27.0,13.0,29.69,NNW,340,8.0,15.0,54,0.00,,,0.00,,2013-02-17 22:22:00,
2013-02-17 17:32:00,27.0,12.0,29.42,North,9,4.0,13.0,52,0.00,,,0.00,,2013-02-17 22:32:00,
2013-02-17 17:42:00,27.0,12.0,29.42,North,9,4.0,13.0,52,0.00,,,0.00,,2013-02-17 22:42:00,
2013-02-17 17:52:00,26.0,9.0,29.42,NNW,341,4.0,11.0,49,0.00,,,0.00,,2013-02-17 22:52:00,
2013-02-17 18:02:00,26.0,9.0,29.42,NNW,340,5.0,18.0,49,0.00,,,0.00,,2013-02-17 23:02:00,
2013-02-17 18:11:00,26.0,9.0,29.42,NNW,340,5.0,18.0,49,0.00,,,0.00,,2013-02-17 23:11:00,
2013-02-17 18:21:00,26.0,10.0,18.69,North,351,10.0,14.0,51,0.00,,,0.00,,2013-02-17 23:21:00,
2013-02-17 18:32:00,26.0,11.0,18.69,NNW,341,6.0,15.0,52,0.00,,,0.00,,2013-02-17 23:32:00,
2013-02-17 18:42:00,26.0,11.0,18.69,NNW,341,6.0,15.0,52,0.00,,,0.00,,2013-02-17 23:42:00,
2013-02-17 18:52:00,26.0,10.0,18.69,NNW,338,8.0,16.0,51,0.00,,,0.00,,2013-02-17 23:52:00,
2013-02-17 19:01:00,25.0,9.0,18.69,NNW,339,5.0,14.0,51,0.00,,,0.00,,2013-02-18 00:01:00,
2013-02-17 19:11:00,25.0,9.0,18.69,NNW,339,5.0,14.0,51,0.00,,,0.00,,2013-02-18 00:11:00,
2013-02-17 19:22:00,25.0,8.0,18.69,North,351,9.0,21.0,48,0.00,,,0.00,,2013-02-18 00:22:00,
2013-02-17 19:32:00,25.0,8.0,18.69,NNW,344,9.0,16.0,48,0.00,,,0.00,,2013-02-18 00:32:00,
2013-02-17 19:41:00,25.0,8.0,18.69,NNW,344,9.0,16.0,48,0.00,,,0.00,,2013-02-18 00:41:00,
2013-02-17 19:52:00,24.0,8.0,18.69,North,359,4.0,13.0,49,0.00,,,0.00,,2013-02-18 00:52:00,
2013-02-17 20:01:00,24.0,8.0,18.69,NNW,343,5.0,13.0,49,0.00,,,0.00,,2013-02-18 01:01:00,
2013-02-17 20:12:00,24.0,8.0,18.69,NNW,343,5.0,13.0,49,0.00,,,0.00,,2013-02-18 01:12:00,
2013-02-17 20:21:00,24.0,8.0,18.69,NNW,339,9.0,16.0,49,0.00,,,0.00,,2013-02-18 01:21:00,
2013-02-17 20:32:00,23.0,7.0,27.30,NNW,342,11.0,15.0,50,0.00,,,0.00,,2013-02-18 01:32:00,
2013-02-17 20:42:00,23.0,7.0,27.30,NNW,342,11.0,15.0,50,0.00,,,0.00,,2013-02-18 01:42:00,
2013-02-17 20:52:00,23.0,8.0,27.30,NNW,340,3.0,10.0,52,0.00,,,0.00,,2013-02-18 01:52:00,
2013-02-17 21:02:00,23.0,9.0,27.30,NNW,331,4.0,11.0,54,0.00,,,0.00,,2013-02-18 02:02:00,
2013-02-17 21:11:00,23.0,9.0,27.30,NNW,331,4.0,11.0,54,0.00,,,0.00,,2013-02-18 02:11:00,
2013-02-17 21:22:00,23.0,8.0,27.30,NNW,342,11.0,17.0,52,0.00,,,0.00,,2013-02-18 02:22:00,
2013-02-17 21:32:00,23.0,8.0,27.30,NNW,341,7.0,19.0,52,0.00,,,0.00,,2013-02-18 02:32:00,
2013-02-17 21:42:00,23.0,8.0,27.30,NNW,341,7.0,19.0,52,0.00,,,0.00,,2013-02-18 02:42:00,
2013-02-17 21:52:00,22.0,8.0,27.30,NNW,344,8.0,16.0,53,0.00,,,0.00,,2013-02-18 02:52:00,
2013-02-17 22:01:00,22.0,8.0,27.30,North,349,10.0,18.0,53,0.00,,,0.00,,2013-02-18 03:01:00,
2013-02-17 22:11:00,22.0,8.0,27.30,North,349,10.0,18.0,53,0.00,,,0.00,,2013-02-18 03:11:00,
2013-02-17 22:21:00,22.0,8.0,27.30,NNW,337,6.0,16.0,54,0.00,,,0.00,,2013-02-18 03:21:00,
2013-02-17 22:32:00,22.0,8.0,27.30,NNW,345,5.0,18.0,54,0.00,,,0.00,,2013-02-18 03:32:00,
2013-02-17 22:42:00,22.0,8.0,27.30,NNW,345,5.0,18.0,54,0.00,,,0.00,,2013-02-18 03:42:00,
2013-02-17 22:52:00,22.0,8.0,27.30,NNW,336,7.0,17.0,54,0.00,,,0.00,,2013-02-18 03:52:00,
2013-02-17 23:01:00,22.0,8.0,27.30,NNW,334,5.0,19.0,55,0.00,,,0.00,,2013-02-18 04:01:00,
2013-02-17 23:11:00,22.0,8.0,27.30,NNW,334,5.0,19.0,55,0.00,,,0.00,,2013-02-18 04:11:00,
2013-02-17 23:21:00,21.0,7.0,27.30,North,349,7.0,19.0,55,0.00,,,0.00,,2013-02-18 04:21:00,
2013-02-17 23:32:00,21.0,7.0,27.30,North,352,10.0,18.0,54,0.00,,,0.00,,2013-02-18 04:32:00,
2013-02-17 23:42:00,21.0,7.0,27.30,North,352,10.0,18.0,54,0.00,,,0.00,,2013-02-18 04:42:00,
2013-02-17 23:52:00,21.0,7.0,27.30,NNW,347,8.0,15.0,55,0.00,,,0.00,,2013-02-18 04:52:00,